Aviation Digital Data Service (ADDS)

Output produced by TAFs form (0649 UTC 17 January 2017)
found at http://aviationweather.gov/adds/tafs/
 
KSAF 170543Z 1706/1806 16010KT P6SM VCSH BKN025 OVC035 
     TEMPO 1706/1710 4SM -SNRA BR BKN015 
     FM171000 13005KT P6SM OVC030 
     FM172000 27005KT P6SM BKN040